Time;durP1;ratioP1;P1;durP2;ratioP2;P2;SDS_P1;SDS_P2;PMS_P1;PMS_P2;Temp;Humidity;BMP_temperature;BMP_pressure;BME280_temperature;BME280_humidity;BME280_pressure;Samples;Min_cycle;Max_cycle;Signal;HPM_P1;HPM_P2
2022/12/31 00:01:21;;;;;;;1.60;1.50;;;16.30;65.70;17.20;99735.00;;;;4995971;28;20226;-47
2022/12/31 00:03:46;;;;;;;1.60;1.50;;;16.30;65.60;17.30;99728.00;;;;4995845;28;20199;-47
2022/12/31 00:06:30;;;;;;;1.50;1.40;;;16.30;65.50;17.30;99724.00;;;;5012505;28;20172;-47
2022/12/31 00:08:59;;;;;;;1.50;1.40;;;16.30;65.40;17.10;99643.00;;;;5012009;28;20182;-48
2022/12/31 00:11:25;;;;;;;1.70;1.60;;;16.30;65.50;17.30;99727.00;;;;5011904;28;20179;-47
2022/12/31 00:13:51;;;;;;;1.23;1.23;;;16.30;65.50;17.30;99587.00;;;;4995385;28;20233;-47
2022/12/31 00:16:23;;;;;;;1.50;1.40;;;16.30;65.40;17.00;99733.00;;;;4995650;28;20195;-48
2022/12/31 00:18:51;;;;;;;1.50;1.40;;;16.30;65.50;17.20;99730.00;;;;5002598;28;20183;-47
2022/12/31 00:21:16;;;;;;;1.57;1.47;;;16.30;65.80;17.20;99717.00;;;;5020559;28;20210;-47
2022/12/31 00:23:42;;;;;;;1.60;1.50;;;16.30;65.90;17.20;99729.00;;;;5020148;28;20195;-47
2022/12/31 00:26:11;;;;;;;1.37;1.37;;;16.30;66.00;17.20;99727.00;;;;4995858;28;20182;-47
2022/12/31 00:28:37;;;;;;;1.60;1.50;;;16.20;66.40;17.20;99650.00;;;;5011925;28;20211;-48
2022/12/31 00:31:09;;;;;;;1.50;1.40;;;16.20;66.40;17.20;99726.00;;;;5011284;28;20230;-48
2022/12/31 00:33:35;;;;;;;1.70;1.60;;;16.20;66.40;17.20;99729.00;;;;4994446;28;20207;-46
2022/12/31 00:36:31;;;;;;;1.33;1.27;;;16.20;66.50;17.20;99730.00;;;;4994482;28;20215;-46
2022/12/31 00:38:58;;;;;;;1.27;1.23;;;16.20;66.60;17.10;99725.00;;;;4993205;28;20187;-46
2022/12/31 00:41:24;;;;;;;1.50;1.40;;;16.20;66.60;17.10;99727.00;;;;5010707;28;20216;-46
2022/12/31 00:43:50;;;;;;;1.40;1.30;;;16.20;66.80;17.10;99575.00;;;;5010695;28;20195;-47
2022/12/31 00:46:16;;;;;;;1.30;1.20;;;16.20;66.90;17.10;99725.00;;;;4994383;28;20242;-48
2022/12/31 00:48:42;;;;;;;1.47;1.37;;;16.20;66.80;17.10;99648.00;;;;4994278;28;20171;-46
2022/12/31 00:51:11;;;;;;;1.17;1.17;;;16.20;66.70;17.10;99656.00;;;;5010490;28;20259;-47
2022/12/31 00:53:37;;;;;;;1.13;1.13;;;16.20;66.80;17.10;99720.00;;;;5010331;28;20195;-47
2022/12/31 00:56:06;;;;;;;1.43;1.33;;;16.20;67.60;17.10;99572.00;;;;4994076;28;20199;-48
2022/12/31 00:58:33;;;;;;;1.23;1.20;;;16.20;66.60;17.10;99633.00;;;;4977622;28;20259;-47
2022/12/31 01:01:06;;;;;;;1.17;1.17;;;16.20;66.70;17.10;99707.00;;;;4993953;28;20270;-46
2022/12/31 01:03:32;;;;;;;1.20;1.20;;;16.20;66.60;17.10;99682.00;;;;4978037;28;20203;-46
2022/12/31 01:05:58;;;;;;;1.50;1.40;;;16.20;66.70;17.10;99699.00;;;;4993744;28;20184;-47
2022/12/31 01:08:24;;;;;;;1.00;1.00;;;16.20;66.70;17.10;99614.00;;;;5010362;28;20179;-48
2022/12/31 01:13:34;;;;;;;1.27;1.17;;;16.10;66.50;17.10;99700.00;;;;5010282;28;20222;-46
2022/12/31 01:16:07;;;;;;;1.13;1.13;;;16.20;66.40;17.10;99694.00;;;;5009973;28;20286;-47
2022/12/31 01:18:33;;;;;;;1.20;1.20;;;16.10;66.40;17.10;99688.00;;;;4993707;28;20191;-47
2022/12/31 01:21:02;;;;;;;1.20;1.10;;;16.10;66.40;17.10;99699.00;;;;4993140;28;20238;-48
2022/12/31 01:23:28;;;;;;;1.03;1.03;;;16.20;66.80;17.10;99692.00;;;;4993625;28;20197;-46
2022/12/31 01:25:54;;;;;;;1.27;1.17;;;16.10;66.70;17.10;99682.00;;;;5009817;28;20176;-47
2022/12/31 01:28:20;;;;;;;1.30;1.20;;;16.20;66.90;17.10;99611.00;;;;5010003;28;20216;-47
2022/12/31 01:30:45;;;;;;;1.10;1.00;;;16.10;66.80;17.10;99638.00;;;;5009785;28;20172;-46
2022/12/31 01:33:11;;;;;;;0.90;0.90;;;16.10;66.80;16.80;99620.00;;;;4993332;28;20227;-47
2022/12/31 01:35:37;;;;;;;1.10;1.10;;;16.10;66.90;17.10;99625.00;;;;5009729;28;20637;-47
2022/12/31 01:38:03;;;;;;;1.10;0.97;;;16.10;67.40;17.10;99696.00;;;;5009842;28;20199;-47
2022/12/31 01:40:28;;;;;;;1.37;1.27;;;16.10;67.40;17.10;99691.00;;;;5011538;28;20613;-47
2022/12/31 01:42:55;;;;;;;1.07;1.07;;;16.10;67.30;17.00;99687.00;;;;5008991;28;20196;-46
2022/12/31 01:45:21;;;;;;;0.93;0.93;;;16.10;67.40;17.00;99607.00;;;;5009680;28;20176;-46
2022/12/31 01:47:50;;;;;;;3.10;1.30;;;16.10;67.10;17.10;99692.00;;;;4977092;28;20190;-46
2022/12/31 01:50:31;;;;;;;0.87;0.87;;;16.10;67.30;17.00;99633.00;;;;4993612;28;20579;-47
2022/12/31 01:52:59;;;;;;;1.00;1.00;;;16.10;67.50;17.00;99701.00;;;;5009186;28;20691;-47
2022/12/31 01:55:46;;;;;;;0.90;0.90;;;16.10;67.90;17.00;99712.00;;;;4977103;28;20791;-49
2022/12/31 01:58:16;;;;;;;1.50;1.13;;;16.10;68.00;17.00;99717.00;;;;5009107;28;20172;-46
2022/12/31 02:00:42;;;;;;;1.00;0.90;;;16.00;68.10;17.00;99712.00;;;;5009136;28;20168;-46
2022/12/31 02:03:07;;;;;;;0.90;0.90;;;16.10;68.30;17.00;99725.00;;;;5008672;28;20213;-46
2022/12/31 02:05:42;;;;;;;0.63;0.63;;;16.00;68.60;17.00;99635.00;;;;5009463;28;20174;-47
2022/12/31 02:08:08;;;;;;;1.83;0.90;;;16.00;68.70;17.00;99719.00;;;;5009002;28;20167;-45
2022/12/31 02:10:34;;;;;;;0.77;0.77;;;16.10;68.90;17.00;99723.00;;;;4992643;28;20181;-47
2022/12/31 02:13:00;;;;;;;0.77;0.77;;;16.10;68.90;17.00;99727.00;;;;5009402;28;20184;-47
2022/12/31 02:15:46;;;;;;;0.80;0.80;;;16.10;69.30;17.00;99736.00;;;;5008316;28;20202;-46
2022/12/31 02:18:51;;;;;;;0.83;0.83;;;16.00;69.00;17.00;99735.00;;;;4994755;28;20191;-47
2022/12/31 02:21:54;;;;;;;0.60;0.60;;;16.00;69.00;17.00;99649.00;;;;4992487;28;20270;-47
2022/12/31 02:24:37;;;;;;;0.93;0.40;;;16.00;68.90;17.00;99718.00;;;;5009054;28;20196;-46
2022/12/31 02:27:49;;;;;;;0.80;0.80;;;16.10;69.00;17.00;99712.00;;;;4993052;28;20594;-47
2022/12/31 02:30:17;;;;;;;0.70;0.70;;;16.00;68.90;16.90;99719.00;;;;5009129;28;20661;-46
2022/12/31 02:33:05;;;;;;;0.60;0.60;;;16.10;69.00;16.60;99723.00;;;;4992078;28;20195;-46
2022/12/31 02:36:07;;;;;;;0.70;0.70;;;16.10;69.10;16.70;99723.00;;;;5002773;28;20164;-48
2022/12/31 02:38:35;;;;;;;0.47;0.47;;;16.10;69.10;17.00;99724.00;;;;4998800;28;20173;-47
2022/12/31 02:41:01;;;;;;;0.50;0.50;;;16.00;69.10;17.00;99713.00;;;;5008474;28;20167;-47
2022/12/31 02:43:27;;;;;;;0.47;0.47;;;16.00;69.10;17.00;99675.00;;;;5007907;28;20554;-46
2022/12/31 02:46:07;;;;;;;0.60;0.60;;;16.10;69.40;17.00;99728.00;;;;4991728;28;20180;-47
2022/12/31 02:48:58;;;;;;;0.53;0.53;;;16.00;69.40;17.00;99736.00;;;;4991804;28;20176;-47
2022/12/31 02:51:39;;;;;;;0.50;0.50;;;16.00;69.40;17.00;99656.00;;;;4991624;28;20171;-46
2022/12/31 02:54:17;;;;;;;1.13;0.63;;;16.10;69.50;17.00;99740.00;;;;5007769;28;20738;-46
2022/12/31 02:57:13;;;;;;;0.77;0.60;;;16.00;69.50;17.00;99734.00;;;;5009593;28;20211;-46
2022/12/31 03:02:37;;;;;;;0.50;0.50;;;16.00;69.50;17.00;99659.00;;;;5007951;28;20237;-47
2022/12/31 03:05:03;;;;;;;0.30;0.30;;;16.10;69.60;17.00;99656.00;;;;5008559;28;20523;-48
2022/12/31 03:07:30;;;;;;;0.67;0.50;;;16.10;69.60;17.00;99667.00;;;;4991475;28;20179;-47
2022/12/31 03:09:56;;;;;;;0.60;0.60;;;16.00;69.70;17.00;99753.00;;;;5007988;28;20178;-46
2022/12/31 03:12:45;;;;;;;0.40;0.40;;;16.00;69.60;17.00;99659.00;;;;5007834;28;20171;-48
2022/12/31 03:15:21;;;;;;;0.67;0.67;;;16.00;70.00;17.00;99739.00;;;;4994067;28;20671;-46
2022/12/31 03:18:13;;;;;;;0.33;0.33;;;16.00;70.10;17.00;99752.00;;;;4991257;28;20190;-46
2022/12/31 03:23:42;;;;;;;0.40;0.40;;;16.00;70.20;17.00;99745.00;;;;5007829;28;20214;-48
2022/12/31 03:26:11;;;;;;;0.30;0.30;;;16.00;70.10;17.00;99751.00;;;;5007235;28;20218;-47
2022/12/31 03:28:42;;;;;;;0.50;0.50;;;16.10;70.30;17.00;99735.00;;;;5007738;28;20175;-47
2022/12/31 03:31:07;;;;;;;0.40;0.40;;;16.00;70.30;17.00;99739.00;;;;5008184;28;20617;-46
2022/12/31 03:33:37;;;;;;;0.47;0.47;;;16.10;70.40;17.10;99735.00;;;;5007460;28;20222;-47
2022/12/31 03:36:08;;;;;;;0.50;0.50;;;16.10;70.80;17.10;99753.00;;;;5007346;28;20300;-46
2022/12/31 03:38:34;;;;;;;0.30;0.30;;;16.10;70.90;17.10;99745.00;;;;5007548;28;20159;-45
2022/12/31 03:41:00;;;;;;;0.30;0.20;;;16.10;70.80;17.10;99678.00;;;;5007592;28;20210;-46
2022/12/31 03:43:26;;;;;;;0.77;0.60;;;16.10;70.90;17.10;99761.00;;;;5007252;28;20200;-47
2022/12/31 03:45:53;;;;;;;0.20;0.20;;;16.10;70.70;17.10;99767.00;;;;4991229;28;20176;-45
2022/12/31 03:48:22;;;;;;;0.33;0.33;;;16.10;71.00;17.10;99755.00;;;;5007934;28;20172;-47
2022/12/31 03:50:48;;;;;;;0.30;0.30;;;16.10;71.20;17.20;99773.00;;;;5008833;28;20171;-48
2022/12/31 03:53:13;;;;;;;0.30;0.30;;;16.10;71.70;17.20;99677.00;;;;4990884;28;20829;-48
2022/12/31 03:55:39;;;;;;;1.60;0.40;;;16.10;71.20;17.20;99774.00;;;;4990744;28;20218;-46
2022/12/31 03:58:05;;;;;;;0.80;0.40;;;16.10;71.70;17.20;99711.00;;;;5008381;28;20680;-47
2022/12/31 04:00:31;;;;;;;0.47;0.47;;;16.10;71.60;17.20;99785.00;;;;5011305;28;20878;-48
2022/12/31 04:02:56;;;;;;;0.30;0.30;;;16.10;71.70;17.20;99773.00;;;;5007212;28;20202;-47
2022/12/31 04:05:22;;;;;;;0.60;0.50;;;16.10;71.70;17.20;99677.00;;;;4991102;28;20207;-47
2022/12/31 04:07:48;;;;;;;0.50;0.47;;;16.10;71.70;17.20;99756.00;;;;5007357;28;20233;-47
2022/12/31 04:10:15;;;;;;;0.43;0.43;;;16.10;71.70;17.20;99747.00;;;;5007255;28;20226;-47
2022/12/31 04:12:42;;;;;;;0.57;0.43;;;16.10;71.50;17.20;99685.00;;;;4990950;28;20534;-47
2022/12/31 04:15:09;;;;;;;0.60;0.60;;;16.10;71.60;17.20;99760.00;;;;5007063;28;20202;-47
2022/12/31 04:17:35;;;;;;;0.50;0.50;;;16.10;71.70;17.20;99744.00;;;;5007057;28;20274;-46
2022/12/31 04:20:01;;;;;;;0.27;0.27;;;16.10;71.80;17.20;99739.00;;;;5007190;28;20192;-47
2022/12/31 04:22:26;;;;;;;0.60;0.60;;;16.10;71.80;17.20;99743.00;;;;5008072;28;20204;-46
2022/12/31 04:24:52;;;;;;;0.30;0.20;;;16.10;72.20;17.20;99761.00;;;;5011270;28;20182;-47
2022/12/31 04:27:18;;;;;;;0.20;0.20;;;16.10;72.00;17.20;99772.00;;;;5027343;28;20644;-48
2022/12/31 04:29:44;;;;;;;0.67;0.67;;;16.10;71.90;17.20;99752.00;;;;5030578;28;20183;-47
2022/12/31 04:32:09;;;;;;;0.57;0.57;;;16.10;71.80;17.20;99765.00;;;;5003023;28;20595;-47
2022/12/31 04:34:35;;;;;;;2.67;0.80;;;16.10;71.80;17.20;99776.00;;;;4964604;28;20247;-47
2022/12/31 04:37:01;;;;;;;2.63;0.50;;;16.10;72.70;17.20;99719.00;;;;4977529;28;21090;-47
2022/12/31 04:39:27;;;;;;;0.60;0.50;;;16.10;74.00;17.20;99687.00;;;;4994615;28;20216;-47
2022/12/31 04:41:53;;;;;;;2.57;0.90;;;16.10;74.90;17.20;99780.00;;;;5009874;28;20172;-47
2022/12/31 04:44:19;;;;;;;0.57;0.47;;;16.20;74.20;17.30;99772.00;;;;5003640;28;20222;-48
2022/12/31 04:46:44;;;;;;;1.27;0.60;;;16.10;74.10;17.30;99793.00;;;;4974438;28;20185;-47
2022/12/31 04:49:10;;;;;;;0.73;0.53;;;16.10;74.20;17.30;99795.00;;;;4975057;28;21026;-47
2022/12/31 04:51:36;;;;;;;0.60;0.57;;;16.10;74.70;17.30;99725.00;;;;4974427;28;20211;-47
2022/12/31 04:54:02;;;;;;;1.63;0.43;;;16.10;75.00;17.30;99792.00;;;;4959618;28;20560;-47
2022/12/31 04:56:28;;;;;;;1.27;0.47;;;16.10;75.30;17.30;99811.00;;;;4992804;28;20195;-47
2022/12/31 04:58:53;;;;;;;0.50;0.50;;;16.10;75.30;17.20;99808.00;;;;5030170;28;20171;-47
2022/12/31 05:01:19;;;;;;;0.30;0.20;;;16.10;74.90;17.30;99791.00;;;;5028528;28;20176;-49
2022/12/31 05:03:45;;;;;;;1.27;0.70;;;16.10;75.00;17.30;99731.00;;;;5030252;28;20286;-47
2022/12/31 05:06:19;;;;;;;0.77;0.60;;;16.10;75.70;17.20;99738.00;;;;5029944;28;20571;-47
2022/12/31 05:08:45;;;;;;;0.93;0.13;;;16.20;75.90;17.20;99827.00;;;;5013472;28;20179;-48
2022/12/31 05:11:11;;;;;;;0.47;0.47;;;16.10;75.60;17.20;99742.00;;;;5012517;28;21092;-47
2022/12/31 05:13:37;;;;;;;0.37;0.37;;;16.20;75.70;17.20;99827.00;;;;5029602;28;20226;-47
2022/12/31 05:16:03;;;;;;;0.60;0.50;;;16.20;76.40;17.20;99808.00;;;;5029462;28;20248;-49
2022/12/31 05:18:29;;;;;;;0.63;0.63;;;16.20;75.50;17.20;99830.00;;;;4996866;28;20195;-48
2022/12/31 05:20:55;;;;;;;0.80;0.70;;;16.20;75.50;17.20;99812.00;;;;5017423;28;20175;-47
2022/12/31 05:23:21;;;;;;;0.67;0.67;;;16.20;75.50;17.30;99826.00;;;;5034935;28;20191;-48
2022/12/31 05:25:47;;;;;;;1.20;0.87;;;16.30;75.60;17.30;99749.00;;;;5035256;28;20172;-46
2022/12/31 05:28:13;;;;;;;1.30;1.03;;;16.20;75.30;17.30;99821.00;;;;5031215;28;20174;-48
2022/12/31 05:30:39;;;;;;;1.40;0.77;;;16.30;75.40;17.30;99844.00;;;;5030106;28;20198;-46
2022/12/31 05:33:04;;;;;;;1.00;0.90;;;16.30;76.10;17.30;99772.00;;;;5030140;28;20245;-48
2022/12/31 05:35:30;;;;;;;2.40;0.93;;;16.30;75.20;17.30;99818.00;;;;5002342;28;20176;-47
2022/12/31 05:37:56;;;;;;;1.00;0.90;;;16.30;74.90;17.30;99822.00;;;;4998783;28;20207;-48
2022/12/31 05:40:22;;;;;;;2.80;1.20;;;16.30;74.40;17.30;99825.00;;;;4985491;28;20176;-48
2022/12/31 05:42:49;;;;;;;1.17;0.70;;;16.20;74.10;17.30;99737.00;;;;4983190;28;20192;-49
2022/12/31 05:45:14;;;;;;;1.23;1.00;;;16.30;74.40;17.30;99841.00;;;;4979129;28;20312;-48
2022/12/31 05:47:41;;;;;;;2.10;1.10;;;16.30;74.00;17.30;99749.00;;;;4983131;28;20195;-47
2022/12/31 05:50:08;;;;;;;1.03;0.93;;;16.30;73.60;17.30;99826.00;;;;4999294;28;20544;-46
2022/12/31 05:52:34;;;;;;;1.10;0.70;;;16.30;73.50;17.30;99821.00;;;;5006739;28;20752;-48
2022/12/31 05:55:00;;;;;;;2.17;1.00;;;16.30;73.30;17.30;99845.00;;;;4993394;28;20262;-47
2022/12/31 05:57:25;;;;;;;3.43;0.90;;;16.20;73.20;17.30;99830.00;;;;5010021;28;20234;-47
2022/12/31 05:59:52;;;;;;;3.23;1.00;;;16.20;73.10;17.30;99752.00;;;;5009650;28;20210;-47
2022/12/31 06:02:21;;;;;;;3.90;0.93;;;16.20;72.90;17.30;99823.00;;;;5009681;28;20210;-48
2022/12/31 06:04:47;;;;;;;3.23;0.90;;;16.20;72.90;17.30;99841.00;;;;5009638;28;20160;-47
2022/12/31 06:07:12;;;;;;;3.53;0.90;;;16.20;72.80;17.10;99843.00;;;;5009321;28;20259;-47
2022/12/31 06:09:38;;;;;;;3.73;1.40;;;16.20;72.70;17.30;99847.00;;;;5009538;28;20207;-48
2022/12/31 06:12:04;;;;;;;9.57;2.40;;;16.20;72.70;17.30;99863.00;;;;5008970;28;20184;-48
2022/12/31 06:14:30;;;;;;;12.43;2.13;;;16.30;72.70;17.30;99863.00;;;;4992919;28;20196;-48
2022/12/31 06:16:56;;;;;;;5.03;1.80;;;16.30;72.90;17.40;99873.00;;;;4993417;28;20192;-47
2022/12/31 06:19:21;;;;;;;7.53;1.70;;;16.30;72.70;17.40;99861.00;;;;4993231;28;20249;-49
2022/12/31 06:21:47;;;;;;;7.80;1.80;;;16.30;72.60;17.40;99871.00;;;;5008606;28;20168;-47
2022/12/31 06:24:13;;;;;;;11.53;1.80;;;16.20;72.40;17.40;99880.00;;;;5009503;28;20731;-47
2022/12/31 06:26:39;;;;;;;4.03;1.53;;;16.20;72.50;17.40;99794.00;;;;4998948;28;20216;-48
2022/12/31 06:29:04;;;;;;;2.97;1.67;;;16.30;72.50;17.40;99882.00;;;;4964708;28;20215;-48
2022/12/31 06:31:30;;;;;;;5.23;1.90;;;16.30;72.70;17.40;99890.00;;;;4957086;28;20182;-47
2022/12/31 06:33:56;;;;;;;8.60;2.00;;;16.30;72.70;17.40;99906.00;;;;4957931;28;20254;-49
2022/12/31 06:36:21;;;;;;;12.10;1.93;;;16.30;72.40;17.40;99902.00;;;;4989250;28;20644;-48
2022/12/31 06:38:47;;;;;;;3.10;1.37;;;16.30;72.40;17.40;99833.00;;;;4989478;28;20689;-48
2022/12/31 06:41:14;;;;;;;5.70;1.70;;;16.30;72.40;17.40;99891.00;;;;4956812;28;20655;-47
2022/12/31 06:43:40;;;;;;;5.30;1.80;;;16.30;72.20;17.10;99883.00;;;;4990825;28;20247;-48
2022/12/31 06:46:08;;;;;;;5.37;1.60;;;16.30;72.10;17.40;99894.00;;;;4977644;28;20173;-47
2022/12/31 06:48:34;;;;;;;3.23;1.50;;;16.30;72.00;17.40;99904.00;;;;4941330;28;20659;-48
2022/12/31 06:51:12;;;;;;;5.03;1.80;;;16.30;72.00;17.40;99924.00;;;;4972820;28;20184;-46
2022/12/31 06:53:37;;;;;;;2.23;1.27;;;16.30;72.00;17.40;99913.00;;;;4957605;28;20254;-47
2022/12/31 06:56:17;;;;;;;4.87;1.43;;;16.20;72.20;17.40;99914.00;;;;4988923;28;20884;-48
2022/12/31 06:58:44;;;;;;;3.43;1.70;;;16.30;72.00;17.40;99923.00;;;;4972740;28;20177;-48
2022/12/31 07:01:25;;;;;;;2.50;1.50;;;16.30;71.80;17.40;99923.00;;;;4972453;28;20240;-48
2022/12/31 07:04:19;;;;;;;3.47;1.50;;;16.30;71.90;17.40;99930.00;;;;4989026;28;20198;-48
2022/12/31 07:06:53;;;;;;;3.97;1.20;;;16.30;71.70;17.40;99853.00;;;;4988818;28;20181;-49
2022/12/31 07:09:52;;;;;;;2.37;1.67;;;16.30;71.70;17.40;99918.00;;;;4973965;28;20790;-49
2022/12/31 07:13:05;;;;;;;2.27;1.40;;;16.30;71.60;17.40;99932.00;;;;4975639;28;20172;-48
2022/12/31 07:15:48;;;;;;;2.40;1.23;;;16.30;71.50;17.40;99857.00;;;;4989224;28;20164;-46
2022/12/31 07:18:46;;;;;;;2.37;1.40;;;16.30;71.50;17.40;99930.00;;;;4989230;28;20224;-47
2022/12/31 07:21:15;;;;;;;2.83;1.20;;;16.30;71.50;17.40;99858.00;;;;4960443;28;20255;-47
2022/12/31 07:23:41;;;;;;;2.03;1.27;;;16.30;71.50;17.40;99936.00;;;;4957435;28;20267;-48
2022/12/31 07:26:40;;;;;;;2.57;1.33;;;16.30;71.30;17.40;99937.00;;;;4956440;28;20251;-49
2022/12/31 07:29:35;;;;;;;1.90;1.50;;;16.20;71.30;17.40;99930.00;;;;4973577;28;20252;-47
2022/12/31 07:32:23;;;;;;;2.30;1.23;;;16.30;71.40;17.40;99941.00;;;;4977605;28;20169;-47
2022/12/31 07:35:18;;;;;;;1.83;1.30;;;16.30;71.50;17.40;99941.00;;;;4988873;28;20222;-48
2022/12/31 07:38:25;;;;;;;1.43;1.10;;;16.30;71.30;17.40;99939.00;;;;4988778;28;20240;-47
2022/12/31 07:41:09;;;;;;;1.90;1.20;;;16.30;71.20;17.40;99938.00;;;;4988666;28;20172;-50
2022/12/31 07:44:01;;;;;;;3.60;1.50;;;16.30;71.30;17.40;99939.00;;;;4989911;28;20193;-47
2022/12/31 07:46:40;;;;;;;2.07;1.27;;;16.30;71.30;17.40;99935.00;;;;4976099;28;20169;-48
2022/12/31 07:49:12;;;;;;;2.13;1.00;;;16.30;71.20;17.40;99920.00;;;;4957573;28;20176;-47
2022/12/31 07:51:38;;;;;;;1.30;1.07;;;16.30;71.20;17.40;99925.00;;;;4972687;28;20663;-48
2022/12/31 07:54:04;;;;;;;1.73;1.30;;;16.30;71.10;17.40;99952.00;;;;4972460;28;20196;-48
2022/12/31 07:56:30;;;;;;;2.20;1.13;;;16.30;70.90;17.40;99939.00;;;;4956014;28;20204;-48
2022/12/31 07:59:29;;;;;;;1.73;0.87;;;16.30;70.90;17.40;99941.00;;;;4956777;28;20211;-47
2022/12/31 08:02:21;;;;;;;1.83;1.30;;;16.20;70.90;17.40;99866.00;;;;4994435;28;20177;-46
2022/12/31 08:05:20;;;;;;;1.40;1.23;;;16.30;71.00;17.40;99957.00;;;;4959375;28;20172;-49
2022/12/31 08:08:25;;;;;;;1.87;1.40;;;16.30;71.30;17.40;99945.00;;;;4989081;28;20223;-48
2022/12/31 08:11:22;;;;;;;2.03;1.00;;;16.30;71.20;17.40;99964.00;;;;4989810;28;20171;-47
2022/12/31 08:13:49;;;;;;;2.43;1.17;;;16.30;71.10;17.40;99954.00;;;;4997424;28;20700;-48
2022/12/31 08:16:15;;;;;;;1.23;1.10;;;16.30;71.00;17.40;99935.00;;;;4978105;28;20180;-49
2022/12/31 08:18:41;;;;;;;2.43;1.30;;;16.30;70.90;17.40;99961.00;;;;4960161;28;20188;-49
2022/12/31 08:21:13;;;;;;;1.33;1.10;;;16.30;70.90;17.40;99966.00;;;;4959779;28;20173;-48
2022/12/31 08:23:45;;;;;;;2.60;1.53;;;16.30;70.90;17.40;99983.00;;;;4992586;28;20196;-48
2022/12/31 08:26:20;;;;;;;3.30;1.20;;;16.30;70.90;17.40;99985.00;;;;4976087;28;20219;-49
2022/12/31 08:29:20;;;;;;;1.20;1.10;;;16.30;70.90;17.50;99898.00;;;;4993551;28;20203;-46
2022/12/31 08:31:55;;;;;;;1.40;1.17;;;16.30;71.00;17.50;99975.00;;;;4976922;28;20241;-48
2022/12/31 08:34:43;;;;;;;1.70;0.97;;;16.40;71.00;17.50;100000.00;;;;5004683;28;20532;-48
2022/12/31 08:37:18;;;;;;;1.70;1.20;;;16.30;71.10;17.50;99989.00;;;;5010162;28;20649;-47
2022/12/31 08:40:09;;;;;;;1.60;1.20;;;16.40;71.10;17.50;99989.00;;;;5009765;28;20210;-47
2022/12/31 08:43:02;;;;;;;1.50;1.03;;;16.40;71.10;17.50;99990.00;;;;5015508;28;21544;-47
2022/12/31 08:45:36;;;;;;;1.17;1.00;;;16.40;71.20;17.50;99914.00;;;;5019057;28;20172;-47
2022/12/31 08:48:24;;;;;;;2.27;1.53;;;16.40;71.10;17.50;99998.00;;;;5003308;28;20172;-47
2022/12/31 08:50:50;;;;;;;1.87;1.20;;;16.40;71.10;17.50;100000.00;;;;5012324;28;20157;-49
2022/12/31 08:53:16;;;;;;;1.30;1.20;;;16.40;71.10;17.50;100001.00;;;;4978510;28;20197;-49
2022/12/31 08:55:42;;;;;;;1.90;1.30;;;16.40;70.90;17.50;99934.00;;;;5009457;28;20698;-48
2022/12/31 08:58:24;;;;;;;1.77;1.23;;;16.40;71.00;17.50;99938.00;;;;5010566;28;20196;-47
2022/12/31 09:00:51;;;;;;;1.30;1.10;;;16.40;71.00;17.50;100011.00;;;;4994756;28;20175;-47
2022/12/31 09:04:01;;;;;;;2.67;1.27;;;16.40;71.20;17.50;100010.00;;;;5010321;28;20196;-49
2022/12/31 09:06:39;;;;;;;1.37;1.20;;;16.40;71.70;17.50;100005.00;;;;5011943;28;20220;-47
2022/12/31 09:09:20;;;;;;;2.43;1.30;;;16.40;71.40;17.50;100005.00;;;;5010789;28;20189;-49
2022/12/31 09:12:13;;;;;;;2.13;1.20;;;16.40;71.20;17.50;100012.00;;;;5011932;28;20188;-47
2022/12/31 09:14:46;;;;;;;2.70;1.53;;;16.50;71.50;17.50;100022.00;;;;5011310;28;20219;-48
2022/12/31 09:17:45;;;;;;;6.63;1.40;;;16.50;71.30;17.60;100035.00;;;;4993448;28;20199;-48
2022/12/31 09:20:30;;;;;;;3.83;1.47;;;16.50;71.10;17.60;100033.00;;;;5011942;28;20222;-49
2022/12/31 09:22:57;;;;;;;2.43;1.27;;;16.50;71.30;17.60;100036.00;;;;5010294;28;20675;-50
2022/12/31 09:25:24;;;;;;;3.73;1.40;;;16.50;72.10;17.60;100036.00;;;;5010866;28;20186;-49
2022/12/31 09:28:25;;;;;;;2.80;1.20;;;16.50;71.30;17.60;100043.00;;;;4979589;28;20822;-49
2022/12/31 09:31:07;;;;;;;5.13;1.30;;;16.50;71.20;17.50;100048.00;;;;4993920;28;20551;-49
2022/12/31 09:34:23;;;;;;;4.77;1.50;;;16.50;71.20;17.50;100070.00;;;;4995705;28;20870;-50
2022/12/31 09:36:54;;;;;;;2.87;1.37;;;16.50;71.20;17.50;100088.00;;;;4989319;28;20595;-47
2022/12/31 09:39:37;;;;;;;1.10;1.00;;;16.60;71.30;17.50;100019.00;;;;5009875;28;20226;-51
2022/12/31 09:42:25;;;;;;;1.90;1.30;;;16.50;71.20;17.50;100115.00;;;;4995333;28;20629;-49
2022/12/31 09:45:23;;;;;;;2.37;1.20;;;16.60;71.10;17.50;100022.00;;;;4996297;28;20168;-49
2022/12/31 09:48:12;;;;;;;3.03;1.03;;;16.50;71.10;17.50;100047.00;;;;4994326;28;20198;-49
2022/12/31 09:51:25;;;;;;;1.80;1.17;;;16.60;71.10;17.50;100132.00;;;;5009334;28;20526;-48
2022/12/31 09:54:35;;;;;;;2.00;1.07;;;16.60;71.10;17.50;100042.00;;;;4998103;28;20202;-48
2022/12/31 09:57:28;;;;;;;1.73;1.10;;;16.60;71.10;17.30;100134.00;;;;5009551;28;20195;-48
2022/12/31 10:00:04;;;;;;;2.37;1.30;;;16.60;71.10;17.60;100045.00;;;;5010973;28;20227;-49
2022/12/31 10:03:29;;;;;;;2.23;1.20;;;16.60;70.90;17.60;100120.00;;;;4978478;28;20238;-49
2022/12/31 10:06:21;;;;;;;3.60;1.43;;;16.60;70.90;17.60;100042.00;;;;4993502;28;20864;-49
2022/12/31 10:09:23;;;;;;;1.80;1.20;;;16.70;70.70;17.60;100042.00;;;;5010925;28;20159;-48
2022/12/31 10:12:22;;;;;;;1.87;1.10;;;16.70;70.60;17.60;100137.00;;;;5005075;28;20198;-48
2022/12/31 10:15:40;;;;;;;3.23;1.60;;;16.70;70.70;17.60;100141.00;;;;5011199;28;20158;-48
2022/12/31 10:18:35;;;;;;;2.90;1.30;;;16.70;70.70;17.60;100143.00;;;;5010753;28;20227;-49
2022/12/31 10:21:15;;;;;;;1.53;1.20;;;16.70;70.50;17.60;100077.00;;;;5010627;28;20207;-49
2022/12/31 10:24:16;;;;;;;4.20;1.63;;;16.70;70.50;17.60;100153.00;;;;4994600;28;20190;-48
2022/12/31 10:27:20;;;;;;;4.63;1.40;;;16.70;70.80;17.70;100154.00;;;;5010109;28;20242;-47
2022/12/31 10:29:55;;;;;;;2.90;1.27;;;16.70;71.40;17.40;100145.00;;;;5009138;28;20148;-48
2022/12/31 10:33:07;;;;;;;4.47;1.40;;;16.80;70.50;17.70;100153.00;;;;5008884;28;20159;-48
2022/12/31 10:36:04;;;;;;;1.37;1.13;;;16.80;70.40;17.70;100153.00;;;;4993750;28;20215;-49
2022/12/31 10:39:02;;;;;;;3.43;1.10;;;16.70;70.30;17.60;100140.00;;;;5008778;28;20164;-49
2022/12/31 10:41:53;;;;;;;3.03;0.90;;;16.70;70.20;17.60;100139.00;;;;4994948;28;20198;-50
2022/12/31 10:45:02;;;;;;;1.20;1.10;;;16.70;70.20;17.70;100117.00;;;;4992688;28;20218;-50
2022/12/31 10:47:49;;;;;;;3.40;1.10;;;16.70;70.20;17.60;100150.00;;;;5008215;28;20218;-49
2022/12/31 10:50:52;;;;;;;2.43;1.23;;;16.70;70.10;17.70;100146.00;;;;5010441;28;20164;-50
2022/12/31 10:53:27;;;;;;;1.60;1.30;;;16.70;70.10;17.60;100063.00;;;;5009934;28;20195;-48
2022/12/31 10:56:42;;;;;;;1.13;0.93;;;16.70;70.10;17.60;100144.00;;;;4992331;28;20262;-47
2022/12/31 10:59:35;;;;;;;1.57;1.20;;;16.70;70.00;17.60;100147.00;;;;5010190;28;20234;-48
2022/12/31 11:02:33;;;;;;;2.10;1.03;;;16.70;69.90;17.60;100147.00;;;;5013601;28;20197;-47
2022/12/31 11:05:22;;;;;;;1.23;1.00;;;16.70;70.10;17.70;100065.00;;;;4997805;28;20529;-48
2022/12/31 11:08:19;;;;;;;3.03;1.40;;;16.70;70.10;17.70;100149.00;;;;4994382;28;20198;-48
2022/12/31 11:11:04;;;;;;;2.20;1.20;;;16.80;70.00;17.70;100147.00;;;;5002208;28;20645;-49
2022/12/31 11:13:51;;;;;;;1.40;1.17;;;16.80;70.00;17.70;100147.00;;;;4999455;28;20211;-47
2022/12/31 11:16:56;;;;;;;2.00;1.10;;;16.80;69.90;17.80;100137.00;;;;5000058;28;20197;-47
2022/12/31 11:20:09;;;;;;;2.57;1.00;;;16.80;69.80;17.80;100165.00;;;;4984814;28;20198;-48
2022/12/31 11:22:52;;;;;;;1.53;1.20;;;16.80;69.90;17.80;100150.00;;;;4971414;28;20171;-48
2022/12/31 11:25:43;;;;;;;2.53;1.30;;;16.80;69.90;17.80;100060.00;;;;5008441;28;20500;-48
2022/12/31 11:28:40;;;;;;;1.73;1.03;;;16.90;70.00;17.80;100157.00;;;;4992719;28;20179;-49
2022/12/31 11:31:39;;;;;;;2.63;1.30;;;16.90;70.20;17.80;100171.00;;;;5008587;28;20176;-48
2022/12/31 11:34:39;;;;;;;1.23;0.90;;;16.90;70.00;17.80;100141.00;;;;5008314;28;20602;-49
2022/12/31 11:37:36;;;;;;;3.03;1.40;;;16.90;70.00;17.80;100159.00;;;;4991478;28;20227;-48
2022/12/31 11:40:30;;;;;;;4.37;1.30;;;16.90;70.00;17.80;100074.00;;;;4991826;28;20179;-49
2022/12/31 11:43:19;;;;;;;1.73;1.20;;;16.90;70.00;17.80;100138.00;;;;4991484;28;20222;-48